createdAt,value
2023-04-15T00:02:19.287Z,90.54
2023-04-15T00:04:54.051Z,90.95
2023-04-15T00:07:29.801Z,91.18
2023-04-15T00:10:04.566Z,90.62
2023-04-15T00:12:39.362Z,90.41
2023-04-15T00:15:13.904Z,91.05
2023-04-15T00:17:48.621Z,90.77
2023-04-15T00:20:23.701Z,91.30
2023-04-15T00:23:00.656Z,91.40
2023-04-15T00:25:35.262Z,90.62
2023-04-15T00:28:10.088Z,91.48
2023-04-15T00:30:44.875Z,91.29
2023-04-15T00:33:19.198Z,90.92
2023-04-15T00:35:55.104Z,91.30
2023-04-15T00:38:31.297Z,91.97
2023-04-15T00:41:06.712Z,91.74
2023-04-15T00:43:41.204Z,91.70
2023-04-15T00:46:17.801Z,91.76
2023-04-15T00:48:53.057Z,91.56
2023-04-15T00:51:27.838Z,92.22
2023-04-15T00:54:04.265Z,92.01
2023-04-15T00:56:40.206Z,91.54
2023-04-15T00:59:15.391Z,92.32
2023-04-15T01:01:50.608Z,91.88
2023-04-15T01:04:25.181Z,91.45
2023-04-15T01:07:00.068Z,90.94
2023-04-15T01:09:35.896Z,90.91
2023-04-15T01:12:15.574Z,90.60
2023-04-15T01:14:49.970Z,90.51
2023-04-15T01:17:26.125Z,90.37
2023-04-15T01:20:00.814Z,90.32
2023-04-15T01:22:38.511Z,90.21
2023-04-15T01:25:21.749Z,90.49
2023-04-15T01:27:58.189Z,90.38
2023-04-15T01:30:35.989Z,90.17
2023-04-15T01:33:10.669Z,90.21
2023-04-15T01:35:46.571Z,90.21
2023-04-15T01:38:22.503Z,90.21
2023-04-15T01:40:57.207Z,90.10
2023-04-15T01:43:33.635Z,89.80
2023-04-15T01:46:08.375Z,89.63
2023-04-15T01:48:43.316Z,89.84
2023-04-15T01:51:17.735Z,89.82
2023-04-15T01:53:52.489Z,89.95
2023-04-15T01:56:26.870Z,90.56
2023-04-15T01:59:03.873Z,89.99
2023-04-15T02:01:38.494Z,90.38
2023-04-15T02:04:16.752Z,90.22
2023-04-15T02:06:51.088Z,90.55
2023-04-15T02:09:25.858Z,91.03
2023-04-15T02:12:00.949Z,91.00
2023-04-15T02:14:37.779Z,91.56
2023-04-15T02:17:12.363Z,91.17
2023-04-15T02:19:46.665Z,91.02
2023-04-15T02:22:21.795Z,91.17
2023-04-15T02:24:56.093Z,91.20
2023-04-15T02:27:30.897Z,91.50
2023-04-15T02:30:08.595Z,91.63
2023-04-15T02:32:45.447Z,91.34
2023-04-15T02:35:20.155Z,91.00
2023-04-15T02:37:54.940Z,91.74
2023-04-15T02:40:29.451Z,91.74
2023-04-15T02:43:05.500Z,91.81
2023-04-15T02:45:41.517Z,91.76
2023-04-15T02:48:18.147Z,91.14
2023-04-15T02:50:52.420Z,91.61
2023-04-15T02:53:27.304Z,91.79
2023-04-15T02:56:01.781Z,91.71
2023-04-15T02:58:37.201Z,91.72
2023-04-15T03:01:13.074Z,91.75
2023-04-15T03:03:48.108Z,91.50
2023-04-15T03:06:22.460Z,91.27
2023-04-15T03:09:00.564Z,91.24
2023-04-15T03:11:40.705Z,91.66
2023-04-15T03:14:15.596Z,91.67
2023-04-15T03:16:52.155Z,92.01
2023-04-15T03:19:27.526Z,92.37
2023-04-15T03:22:02.008Z,92.11
2023-04-15T03:24:36.966Z,92.20
2023-04-15T03:27:11.323Z,92.28
2023-04-15T03:29:46.122Z,91.76
2023-04-15T03:32:22.572Z,92.58
2023-04-15T03:34:57.143Z,92.28
2023-04-15T03:37:31.582Z,91.89
2023-04-15T03:40:06.799Z,92.42
2023-04-15T03:42:41.186Z,92.12
2023-04-15T03:45:15.927Z,91.57
2023-04-15T03:47:51.775Z,91.99
2023-04-15T03:50:26.774Z,92.92
2023-04-15T03:53:01.000Z,92.46
2023-04-15T03:55:35.767Z,92.40
2023-04-15T03:58:12.985Z,92.87
2023-04-15T04:00:47.630Z,92.62
2023-04-15T04:03:26.511Z,93.99
2023-04-15T04:06:01.059Z,94.13
2023-04-15T04:08:35.743Z,93.82
2023-04-15T04:11:10.192Z,93.43
2023-04-15T04:13:44.831Z,93.86
2023-04-15T04:16:19.225Z,94.18
2023-04-15T04:18:55.339Z,93.92
2023-04-15T04:21:30.009Z,93.61
2023-04-15T04:24:04.893Z,93.48
2023-04-15T04:26:39.223Z,93.07
2023-04-15T04:29:14.069Z,93.62
2023-04-15T04:31:48.908Z,93.91
2023-04-15T04:34:24.965Z,93.90
2023-04-15T04:36:59.399Z,94.59
2023-04-15T04:39:34.044Z,95.06
2023-04-15T04:42:08.402Z,95.36
2023-04-15T04:44:43.098Z,95.10
2023-04-15T04:47:17.303Z,94.06
2023-04-15T04:49:53.390Z,94.84
2023-04-15T04:52:27.888Z,94.32
2023-04-15T04:55:02.594Z,94.12
2023-04-15T04:57:37.851Z,94.42
2023-04-15T05:00:24.603Z,93.81
2023-04-15T05:02:59.220Z,93.86
2023-04-15T05:05:35.956Z,94.83
2023-04-15T05:08:10.229Z,94.93
2023-04-15T05:10:45.030Z,95.33
2023-04-15T05:13:19.530Z,94.55
2023-04-15T05:15:54.176Z,94.23
2023-04-15T05:18:29.285Z,93.10
2023-04-15T05:21:06.121Z,94.16
2023-04-15T05:23:41.104Z,94.41
2023-04-15T05:26:15.866Z,93.93
2023-04-15T05:28:50.390Z,93.67
2023-04-15T05:31:25.073Z,100.00
2023-04-15T05:33:59.509Z,96.46
2023-04-15T05:36:35.858Z,91.50
2023-04-15T05:39:10.316Z,92.46
2023-04-15T05:41:44.911Z,93.38
2023-04-15T05:44:19.187Z,94.09
2023-04-15T05:46:53.861Z,93.88
2023-04-15T05:49:28.170Z,94.84
2023-04-15T05:52:04.491Z,94.03
2023-04-15T05:54:39.051Z,93.93
2023-04-15T05:57:13.689Z,94.53
2023-04-15T05:59:48.160Z,95.17
2023-04-15T06:03:07.947Z,92.54
2023-04-15T06:05:45.057Z,92.54
2023-04-15T06:08:19.433Z,94.13
2023-04-15T06:10:54.136Z,93.94
2023-04-15T06:13:28.587Z,92.99
2023-04-15T06:16:04.227Z,92.94
2023-04-15T06:18:40.131Z,93.31
2023-04-15T06:21:14.815Z,93.15
2023-04-15T06:23:49.186Z,92.56
2023-04-15T06:26:23.778Z,92.65
2023-04-15T06:28:58.129Z,92.40
2023-04-15T06:31:32.801Z,92.23
2023-04-15T06:34:08.535Z,92.54
2023-04-15T06:36:43.133Z,92.36
2023-04-15T06:39:17.684Z,92.22
2023-04-15T06:41:52.520Z,100.00
2023-04-15T06:44:28.787Z,96.90
2023-04-15T06:47:03.534Z,90.19
2023-04-15T06:49:40.567Z,89.72
2023-04-15T06:52:16.808Z,89.53
2023-04-15T06:54:51.364Z,89.09
2023-04-15T06:57:26.541Z,90.08
2023-04-15T07:00:01.162Z,90.49
2023-04-15T07:02:36.272Z,90.82
2023-04-15T07:05:12.904Z,90.13
2023-04-15T07:07:47.482Z,91.84
2023-04-15T07:10:23.302Z,92.06
2023-04-15T07:12:58.587Z,90.97
2023-04-15T07:15:32.881Z,90.94
2023-04-15T07:18:07.430Z,90.86
2023-04-15T07:20:43.152Z,91.19
2023-04-15T07:23:18.497Z,91.39
2023-04-15T07:25:53.231Z,92.27
2023-04-15T07:28:28.209Z,92.54
2023-04-15T07:31:02.823Z,92.63
2023-04-15T07:33:37.730Z,92.29
2023-04-15T07:36:13.558Z,92.30
2023-04-15T07:38:48.410Z,93.83
2023-04-15T07:41:23.214Z,94.04
2023-04-15T07:43:57.927Z,100.00
2023-04-15T07:46:32.443Z,93.40
2023-04-15T07:49:07.600Z,88.10
2023-04-15T07:51:44.521Z,91.48
2023-04-15T07:54:20.096Z,91.78
2023-04-15T07:56:54.418Z,91.81
2023-04-15T07:59:30.235Z,90.78
2023-04-15T08:02:05.074Z,91.01
2023-04-15T08:04:40.092Z,91.45
2023-04-15T08:07:16.299Z,91.62
2023-04-15T08:09:51.288Z,92.31
2023-04-15T08:12:25.993Z,93.22
2023-04-15T08:15:01.130Z,93.43
2023-04-15T08:17:35.743Z,93.43
2023-04-15T08:20:10.882Z,93.53
2023-04-15T08:22:47.972Z,92.26
2023-04-15T08:25:22.689Z,92.64
2023-04-15T08:27:57.316Z,92.47
2023-04-15T08:30:31.996Z,93.14
2023-04-15T08:33:06.252Z,92.12
2023-04-15T08:35:40.875Z,92.39
2023-04-15T08:38:16.966Z,92.05
2023-04-15T08:40:51.917Z,93.16
2023-04-15T08:43:30.789Z,94.34
2023-04-15T08:46:06.788Z,93.73
2023-04-15T08:48:41.702Z,93.07
2023-04-15T08:51:17.361Z,92.33
2023-04-15T08:53:53.568Z,93.63
2023-04-15T08:56:29.423Z,93.96
2023-04-15T08:59:03.956Z,94.14
2023-04-15T09:01:39.752Z,93.51
2023-04-15T09:04:14.552Z,92.62
2023-04-15T09:06:49.515Z,92.50
2023-04-15T09:09:25.348Z,93.07
2023-04-15T09:12:00.024Z,93.64
2023-04-15T09:14:35.166Z,93.45
2023-04-15T09:17:12.470Z,93.13
2023-04-15T09:19:46.998Z,94.44
2023-04-15T09:22:22.794Z,93.80
2023-04-15T09:24:58.754Z,93.71
2023-04-15T09:27:39.087Z,92.93
2023-04-15T09:30:14.403Z,93.13
2023-04-15T09:32:53.241Z,93.24
2023-04-15T09:35:28.702Z,93.80
2023-04-15T09:38:05.460Z,93.02
2023-04-15T09:40:42.719Z,93.27
2023-04-15T09:43:18.060Z,93.45
2023-04-15T09:45:54.015Z,93.59
2023-04-15T09:48:31.228Z,93.46
2023-04-15T09:51:05.752Z,94.25
2023-04-15T09:53:40.513Z,94.63
2023-04-15T09:56:16.226Z,93.67
2023-04-15T09:58:58.591Z,94.58
2023-04-15T10:01:33.221Z,95.39
2023-04-15T10:04:08.036Z,96.18
2023-04-15T10:06:42.742Z,96.09
2023-04-15T10:09:17.941Z,96.77
2023-04-15T10:11:53.982Z,95.51
2023-04-15T10:14:34.045Z,95.37
2023-04-15T10:17:12.414Z,96.15
2023-04-15T10:19:48.309Z,94.21
2023-04-15T10:22:24.541Z,92.92
2023-04-15T10:25:00.060Z,93.74
2023-04-15T10:27:36.235Z,91.92
2023-04-15T10:30:12.070Z,94.20
2023-04-15T10:32:47.578Z,93.64
2023-04-15T10:35:23.747Z,94.28
2023-04-15T10:37:58.168Z,94.60
2023-04-15T10:40:34.803Z,94.54
2023-04-15T10:43:27.608Z,94.21
2023-04-15T10:46:02.288Z,93.96
2023-04-15T10:48:36.711Z,94.28
2023-04-15T10:51:11.413Z,94.10
2023-04-15T10:53:45.856Z,92.49
2023-04-15T10:56:20.462Z,94.17
2023-04-15T10:58:56.474Z,93.91
2023-04-15T11:01:54.290Z,93.49
2023-04-15T11:04:54.596Z,93.96
2023-04-15T11:07:39.632Z,93.71
2023-04-15T11:10:54.156Z,91.87
2023-04-15T11:13:31.558Z,92.22
2023-04-15T11:16:07.570Z,93.08
2023-04-15T11:18:42.272Z,91.82
2023-04-15T11:21:16.717Z,91.23
2023-04-15T11:23:51.461Z,91.19
2023-04-15T11:26:28.428Z,90.48
2023-04-15T11:29:03.568Z,92.47
2023-04-15T11:31:39.624Z,93.60
2023-04-15T11:34:14.215Z,90.49
2023-04-15T11:36:48.552Z,91.68
2023-04-15T11:39:24.390Z,89.46
2023-04-15T11:41:58.738Z,88.33
2023-04-15T11:44:33.386Z,88.20
2023-04-15T11:47:27.403Z,89.43
2023-04-15T11:50:16.669Z,89.11
2023-04-15T11:52:55.321Z,89.38
2023-04-15T11:55:30.546Z,90.19
2023-04-15T11:58:11.769Z,91.81
2023-04-15T12:00:52.551Z,88.96
2023-04-15T12:03:30.526Z,87.69
2023-04-15T12:06:16.972Z,84.72
2023-04-15T12:09:06.047Z,83.73
2023-04-15T12:11:45.995Z,85.47
2023-04-15T12:14:25.546Z,82.16
2023-04-15T12:17:01.616Z,83.04
2023-04-15T12:19:39.918Z,81.55
2023-04-15T12:22:15.930Z,80.89
2023-04-15T12:24:57.912Z,81.66
2023-04-15T12:27:33.150Z,82.39
2023-04-15T12:30:09.671Z,82.89
2023-04-15T12:32:44.277Z,83.09
2023-04-15T12:35:21.710Z,82.88
2023-04-15T12:37:56.550Z,81.28
2023-04-15T12:40:31.300Z,82.10
2023-04-15T12:43:05.888Z,81.20
2023-04-15T12:45:40.515Z,81.30
2023-04-15T12:48:14.858Z,79.90
2023-04-15T12:50:50.996Z,79.64
2023-04-15T12:53:25.337Z,80.55
2023-04-15T12:56:02.865Z,81.39
2023-04-15T12:58:37.358Z,78.70
2023-04-15T13:01:13.019Z,79.23
2023-04-15T13:03:48.297Z,79.18
2023-04-15T13:06:25.020Z,75.18
2023-04-15T13:08:59.810Z,76.25
2023-04-15T13:11:35.942Z,73.18
2023-04-15T13:14:11.552Z,73.45
2023-04-15T13:16:46.598Z,73.63
2023-04-15T13:19:21.428Z,73.29
2023-04-15T13:21:57.715Z,74.12
2023-04-15T13:24:32.197Z,73.86
2023-04-15T13:27:07.446Z,72.67
2023-04-15T13:29:41.879Z,72.94
2023-04-15T13:32:16.858Z,73.37
2023-04-15T13:34:51.274Z,69.62
2023-04-15T13:37:29.504Z,71.64
2023-04-15T13:40:04.282Z,71.09
2023-04-15T13:42:39.076Z,70.94
2023-04-15T13:45:13.608Z,70.90
2023-04-15T13:47:48.375Z,72.53
2023-04-15T13:50:22.740Z,71.58
2023-04-15T13:52:58.816Z,71.28
2023-04-15T13:55:35.162Z,70.34
2023-04-15T13:58:10.103Z,70.82
2023-04-15T14:03:06.412Z,70.22
2023-04-15T14:05:41.856Z,70.22
2023-04-15T14:08:16.520Z,71.63
2023-04-15T14:10:51.352Z,73.08
2023-04-15T14:13:26.229Z,73.54
2023-04-15T14:16:01.055Z,74.99
2023-04-15T14:18:37.838Z,77.30
2023-04-15T14:21:12.553Z,79.34
2023-04-15T14:23:47.159Z,79.89
2023-04-15T14:26:21.988Z,84.29
2023-04-15T14:28:56.952Z,86.32
2023-04-15T14:31:31.638Z,88.18
2023-04-15T14:34:07.412Z,89.08
2023-04-15T14:36:42.176Z,90.09
2023-04-15T14:39:16.813Z,91.13
2023-04-15T14:41:51.808Z,92.00
2023-04-15T14:44:26.476Z,91.60
2023-04-15T14:47:01.296Z,90.57
2023-04-15T14:49:37.089Z,91.11
2023-04-15T14:52:11.878Z,88.79
2023-04-15T14:54:46.320Z,89.29
2023-04-15T14:57:20.935Z,89.65
2023-04-15T14:59:56.819Z,90.55
2023-04-15T15:02:38.960Z,89.39
2023-04-15T15:05:16.389Z,89.43
2023-04-15T15:07:51.237Z,88.51
2023-04-15T15:10:38.627Z,89.08
2023-04-15T15:13:20.847Z,88.08
2023-04-15T15:15:55.351Z,88.13
2023-04-15T15:18:30.237Z,84.93
2023-04-15T15:21:06.317Z,84.93
2023-04-15T15:23:41.195Z,81.79
2023-04-15T15:26:15.980Z,82.71
2023-04-15T15:28:51.565Z,84.45
2023-04-15T15:31:26.200Z,84.63
2023-04-15T15:34:00.869Z,83.85
2023-04-15T15:36:36.591Z,84.44
2023-04-15T15:39:12.173Z,81.81
2023-04-15T15:41:46.616Z,83.51
2023-04-15T15:44:21.271Z,82.08
2023-04-15T15:46:55.722Z,82.92
2023-04-15T15:49:30.606Z,83.49
2023-04-15T15:52:06.988Z,85.12
2023-04-15T15:54:42.094Z,84.93
2023-04-15T15:57:16.549Z,84.71
2023-04-15T16:00:04.808Z,83.71
2023-04-15T16:03:05.284Z,83.55
2023-04-15T16:05:34.233Z,83.95
2023-04-15T16:08:10.110Z,84.99
2023-04-15T16:10:45.890Z,86.44
2023-04-15T16:13:20.247Z,87.96
2023-04-15T16:15:55.080Z,88.78
2023-04-15T16:18:30.026Z,88.43
2023-04-15T16:21:05.278Z,87.52
2023-04-15T16:23:41.145Z,88.26
2023-04-15T16:26:16.023Z,87.57
2023-04-15T16:28:50.383Z,86.35
2023-04-15T16:31:25.703Z,87.35
2023-04-15T16:34:00.358Z,86.87
2023-04-15T16:36:36.425Z,86.43
2023-04-15T16:39:12.242Z,86.64
2023-04-15T16:41:47.359Z,87.08
2023-04-15T16:44:21.861Z,87.05
2023-04-15T16:46:56.916Z,88.35
2023-04-15T16:49:31.680Z,87.48
2023-04-15T16:52:06.698Z,84.96
2023-04-15T16:54:42.454Z,88.32
2023-04-15T16:57:17.023Z,89.17
2023-04-15T16:59:52.846Z,89.01
2023-04-15T17:02:27.956Z,88.17
2023-04-15T17:05:02.416Z,88.52
2023-04-15T17:07:37.243Z,87.94
2023-04-15T17:10:13.986Z,88.41
2023-04-15T17:12:49.857Z,87.92
2023-04-15T17:15:24.195Z,88.57
2023-04-15T17:17:59.337Z,88.74
2023-04-15T17:20:34.791Z,87.75
2023-04-15T17:23:09.612Z,88.22
2023-04-15T17:25:45.753Z,88.96
2023-04-15T17:28:20.804Z,88.50
2023-04-15T17:30:55.462Z,88.65
2023-04-15T17:34:01.544Z,88.40
2023-04-15T17:36:24.750Z,88.35
2023-04-15T17:39:00.026Z,88.88
2023-04-15T17:41:36.292Z,89.99
2023-04-15T17:44:11.269Z,90.29
2023-04-15T17:46:45.934Z,90.52
2023-04-15T17:49:21.078Z,90.85
2023-04-15T17:51:55.666Z,91.06
2023-04-15T17:54:30.475Z,91.08
2023-04-15T17:57:06.466Z,90.51
2023-04-15T17:59:44.104Z,91.03
2023-04-15T18:02:19.297Z,90.25
2023-04-15T18:04:54.859Z,90.18
2023-04-15T18:07:29.525Z,90.11
2023-04-15T18:10:04.476Z,90.00
2023-04-15T18:12:40.534Z,90.08
2023-04-15T18:15:15.794Z,90.18
2023-04-15T18:17:50.547Z,90.32
2023-04-15T18:20:25.563Z,90.63
2023-04-15T18:23:00.221Z,90.04
2023-04-15T18:25:35.215Z,89.83
2023-04-15T18:28:11.402Z,89.73
2023-04-15T18:30:46.368Z,90.32
2023-04-15T18:33:21.066Z,90.68
2023-04-15T18:35:57.569Z,91.08
2023-04-15T18:38:32.139Z,90.82
2023-04-15T18:41:09.584Z,90.68
2023-04-15T18:43:45.948Z,90.57
2023-04-15T18:46:20.998Z,91.02
2023-04-15T18:48:55.732Z,91.33
2023-04-15T18:51:30.587Z,90.78
2023-04-15T18:54:05.362Z,90.85
2023-04-15T18:56:40.706Z,90.42
2023-04-15T18:59:29.099Z,90.43
2023-04-15T19:02:07.639Z,90.54
2023-04-15T19:04:42.157Z,90.84
2023-04-15T19:07:17.086Z,90.31
2023-04-15T19:09:51.581Z,90.53
2023-04-15T19:12:28.024Z,90.70
2023-04-15T19:15:03.919Z,90.92
2023-04-15T19:17:38.852Z,90.89
2023-04-15T19:20:13.208Z,91.08
2023-04-15T19:22:48.574Z,91.19
2023-04-15T19:25:22.934Z,91.03
2023-04-15T19:27:59.943Z,90.97
2023-04-15T19:30:36.448Z,90.90
2023-04-15T19:33:11.267Z,90.66
2023-04-15T19:35:46.766Z,91.26
2023-04-15T19:38:22.651Z,91.13
2023-04-15T19:40:57.320Z,90.82
2023-04-15T19:43:33.328Z,91.22
2023-04-15T19:46:10.054Z,91.46
2023-04-15T19:48:45.214Z,91.02
2023-04-15T19:51:20.499Z,90.93
2023-04-15T19:53:56.880Z,91.27
2023-04-15T19:56:34.185Z,91.38
2023-04-15T19:59:09.601Z,91.25
2023-04-15T20:01:45.969Z,90.89
2023-04-15T20:04:20.789Z,91.09
2023-04-15T20:06:55.870Z,91.67
2023-04-15T20:09:30.820Z,91.95
2023-04-15T20:12:49.598Z,91.85
2023-04-15T20:15:02.086Z,91.24
2023-04-15T20:17:39.027Z,90.70
2023-04-15T20:20:13.995Z,90.18
2023-04-15T20:22:48.601Z,90.49
2023-04-15T20:25:23.451Z,91.26
2023-04-15T20:28:00.411Z,91.81
2023-04-15T20:30:36.034Z,91.18
2023-04-15T20:33:12.225Z,91.69
2023-04-15T20:35:47.122Z,92.34
2023-04-15T20:38:22.212Z,92.31
2023-04-15T20:40:57.953Z,91.77
2023-04-15T20:43:32.889Z,91.64
2023-04-15T20:46:19.849Z,92.26
2023-04-15T20:49:03.547Z,92.41
2023-04-15T20:51:38.455Z,92.30
2023-04-15T20:54:12.889Z,92.07
2023-04-15T20:56:47.782Z,92.33
2023-04-15T20:59:22.185Z,92.75
2023-04-15T21:01:57.593Z,92.45
2023-04-15T21:04:33.298Z,92.17
2023-04-15T21:07:07.959Z,92.14
2023-04-15T21:09:43.786Z,91.84
2023-04-15T21:12:18.438Z,91.80
2023-04-15T21:14:53.078Z,91.84
2023-04-15T21:17:27.869Z,91.96
2023-04-15T21:20:03.780Z,92.40
2023-04-15T21:22:38.441Z,92.85
2023-04-15T21:25:12.795Z,92.04
2023-04-15T21:27:47.436Z,92.06
2023-04-15T21:30:23.853Z,92.29
2023-04-15T21:32:58.631Z,92.11
2023-04-15T21:35:34.341Z,91.66
2023-04-15T21:38:09.389Z,91.87
2023-04-15T21:40:43.828Z,92.08
2023-04-15T21:43:18.682Z,91.64
2023-04-15T21:46:24.243Z,91.60
2023-04-15T21:48:48.270Z,91.43
2023-04-15T21:51:24.072Z,91.74
2023-04-15T21:53:58.861Z,91.90
2023-04-15T21:56:33.788Z,91.82
2023-04-15T21:59:08.625Z,91.86
2023-04-15T22:02:57.392Z,89.54
2023-04-15T22:05:32.534Z,89.54
2023-04-15T22:08:08.022Z,91.03
2023-04-15T22:10:42.693Z,91.36
2023-04-15T22:13:18.003Z,91.34
2023-04-15T22:15:52.604Z,90.82
2023-04-15T22:18:28.373Z,90.39
2023-04-15T22:21:02.966Z,90.39
2023-04-15T22:23:37.278Z,90.37
2023-04-15T22:26:11.958Z,90.38
2023-04-15T22:28:46.354Z,90.16
2023-04-15T22:31:20.926Z,90.85
2023-04-15T22:33:57.066Z,90.92
2023-04-15T22:36:31.917Z,91.39
2023-04-15T22:39:06.612Z,91.08
2023-04-15T22:41:41.438Z,91.46
2023-04-15T22:44:15.844Z,91.55
2023-04-15T22:46:52.156Z,91.65
2023-04-15T22:49:28.067Z,90.95
2023-04-15T22:52:02.837Z,90.87
2023-04-15T22:54:37.059Z,90.62
2023-04-15T22:57:11.646Z,90.63
2023-04-15T22:59:46.190Z,90.44
2023-04-15T23:02:21.512Z,90.00
2023-04-15T23:04:57.840Z,90.36
2023-04-15T23:07:32.527Z,90.26
2023-04-15T23:10:08.155Z,90.28
2023-04-15T23:12:42.960Z,90.27
2023-04-15T23:15:17.921Z,89.63
2023-04-15T23:17:52.505Z,89.85
2023-04-15T23:20:28.195Z,89.81
2023-04-15T23:23:03.132Z,89.73
2023-04-15T23:25:37.498Z,89.53
2023-04-15T23:28:12.234Z,89.82
2023-04-15T23:30:46.511Z,90.49
2023-04-15T23:33:21.110Z,91.04
2023-04-15T23:35:57.099Z,91.36
2023-04-15T23:38:31.731Z,90.83
2023-04-15T23:41:06.305Z,90.91
2023-04-15T23:43:40.890Z,90.47
2023-04-15T23:46:17.012Z,90.45
2023-04-15T23:48:51.660Z,90.49
2023-04-15T23:51:27.476Z,90.83
2023-04-15T23:54:02.456Z,91.02
2023-04-15T23:56:36.843Z,91.09
2023-04-15T23:59:11.572Z,91.45
